createdAt,value
2023-05-09T00:01:54.340Z,50.6
2023-05-09T00:06:54.963Z,50.6
2023-05-09T00:11:55.394Z,50.4
2023-05-09T00:16:56.179Z,50.6
2023-05-09T00:21:59.561Z,50.8
2023-05-09T00:26:59.619Z,50.7
2023-05-09T00:32:00.127Z,50.6
2023-05-09T00:37:00.524Z,50.5
2023-05-09T00:42:01.123Z,50.6
2023-05-09T00:47:04.641Z,50.5
2023-05-09T00:52:04.636Z,50.6
2023-05-09T00:57:07.935Z,50.7
2023-05-09T01:07:11.812Z,51
2023-05-09T01:12:11.950Z,50.6
2023-05-09T01:17:13.712Z,50.7
2023-05-09T01:22:13.992Z,50.4
2023-05-09T01:27:14.962Z,50.5
2023-05-09T01:32:15.338Z,50.6
2023-05-09T01:37:16.244Z,50.4
2023-05-09T01:42:16.894Z,50.5
2023-05-09T01:47:17.605Z,50.6
2023-05-09T01:52:18.139Z,50.4
2023-05-09T01:57:19.042Z,50.1
2023-05-09T02:02:22.242Z,50.4
2023-05-09T02:07:22.233Z,50.1
2023-05-09T02:12:22.912Z,50.5
2023-05-09T02:17:26.282Z,50.2
2023-05-09T02:22:29.143Z,50.3
2023-05-09T02:27:32.113Z,50.3
2023-05-09T02:32:34.707Z,50.3
2023-05-09T02:37:37.458Z,50.3
2023-05-09T02:42:37.392Z,50.3
2023-05-09T02:47:40.697Z,50.2
2023-05-09T02:52:40.721Z,50.1
2023-05-09T02:57:41.512Z,50.2
2023-05-09T03:02:42.096Z,50.1
2023-05-09T03:07:42.647Z,50.2
2023-05-09T03:12:46.319Z,50
2023-05-09T03:17:46.396Z,49.9
2023-05-09T03:22:47.062Z,49.9
2023-05-09T03:27:47.594Z,50.1
2023-05-09T03:32:48.336Z,50.1
2023-05-09T03:37:48.774Z,50
2023-05-09T03:42:51.119Z,50.1
2023-05-09T03:47:54.082Z,49.9
2023-05-09T03:52:54.316Z,49.8
2023-05-09T03:57:54.812Z,49.8
2023-05-09T04:02:55.755Z,49.9
2023-05-09T04:07:56.290Z,49.8
2023-05-09T04:12:57.121Z,49.8
2023-05-09T04:18:01.723Z,49.6
2023-05-09T04:23:04.231Z,49.5
2023-05-09T04:28:04.464Z,49.9
2023-05-09T04:33:05.037Z,49.8
2023-05-09T04:38:05.507Z,49.8
2023-05-09T04:43:06.257Z,49.9
2023-05-09T04:48:06.894Z,50.1
2023-05-09T04:53:07.799Z,50.3
2023-05-09T04:58:08.265Z,50.4
2023-05-09T05:03:08.777Z,50.3
2023-05-09T05:08:09.239Z,50.4
2023-05-09T05:13:10.115Z,50.5
2023-05-09T05:18:13.507Z,50.4
2023-05-09T05:23:13.731Z,50.4
2023-05-09T05:28:17.054Z,50.1
2023-05-09T05:33:16.960Z,50
2023-05-09T05:38:17.327Z,49.7
2023-05-09T05:43:20.941Z,49.5
2023-05-09T05:48:20.884Z,49.3
2023-05-09T05:53:24.232Z,49.4
2023-05-09T05:58:24.347Z,49.3
2023-05-09T06:03:27.428Z,49.3
2023-05-09T06:08:30.352Z,49.4
2023-05-09T06:13:30.660Z,49.3
2023-05-09T06:18:31.251Z,49.1
2023-05-09T06:23:32.084Z,49.2
2023-05-09T06:28:32.779Z,49.3
2023-05-09T06:33:26.665Z,49.1
2023-05-09T06:38:29.574Z,49.2
2023-05-09T06:43:32.273Z,49.2
2023-05-09T06:48:32.377Z,49.2
2023-05-09T06:53:33.096Z,49
2023-05-09T06:58:36.358Z,49.1
2023-05-09T07:03:36.393Z,49
2023-05-09T07:08:37.112Z,49.2
2023-05-09T07:13:37.657Z,49.3
2023-05-09T07:18:42.188Z,49.4
2023-05-09T07:23:42.283Z,49.3
2023-05-09T07:28:42.889Z,49.1
2023-05-09T07:33:43.444Z,49.1
2023-05-09T07:38:44.052Z,49
2023-05-09T07:43:47.397Z,49.3
2023-05-09T07:48:50.449Z,49.1
2023-05-09T07:53:50.721Z,49.2
2023-05-09T07:58:51.221Z,49.3
2023-05-09T08:03:51.766Z,49
2023-05-09T08:08:54.976Z,49.3
2023-05-09T08:13:57.555Z,49.1
2023-05-09T08:18:57.607Z,49.4
2023-05-09T08:23:58.329Z,49.2
2023-05-09T08:28:58.675Z,49.1
2023-05-09T08:33:59.527Z,49
2023-05-09T08:39:03.924Z,48.9
2023-05-09T08:44:03.777Z,48.7
2023-05-09T08:49:04.240Z,48.7
2023-05-09T08:54:07.638Z,48.7
2023-05-09T08:59:10.335Z,48.6
2023-05-09T09:04:10.519Z,48.3
2023-05-09T09:09:13.910Z,48
2023-05-09T09:14:13.910Z,47.9
2023-05-09T09:19:14.508Z,48
2023-05-09T09:24:15.269Z,47.9
2023-05-09T09:29:15.831Z,47.7
2023-05-09T09:34:16.077Z,47.8
2023-05-09T09:39:16.622Z,47.9
2023-05-09T09:44:17.233Z,47.9
2023-05-09T09:49:20.659Z,47.7
2023-05-09T09:54:23.375Z,47.9
2023-05-09T09:59:23.386Z,48
2023-05-09T10:04:24.167Z,47.9
2023-05-09T10:09:27.382Z,47.7
2023-05-09T10:14:30.183Z,47.9
2023-05-09T10:19:33.164Z,47.6
2023-05-09T10:24:33.529Z,47.8
2023-05-09T10:29:33.868Z,47.8
2023-05-09T10:34:34.122Z,48.2
2023-05-09T10:39:34.809Z,48.1
2023-05-09T10:44:35.237Z,48.5
2023-05-09T10:49:38.594Z,48.5
2023-05-09T10:54:39.366Z,48.8
2023-05-09T10:59:42.196Z,48.5
2023-05-09T11:04:45.260Z,48.6
2023-05-09T11:09:45.360Z,48.5
2023-05-09T11:14:45.849Z,48.8
2023-05-09T11:19:46.431Z,48.9
2023-05-09T11:24:46.882Z,49.4
2023-05-09T11:29:47.449Z,47.5
2023-05-09T11:34:47.634Z,49.4
2023-05-09T11:39:51.969Z,49.3
2023-05-09T11:44:52.009Z,49.3
2023-05-09T11:49:55.079Z,49.2
2023-05-09T11:54:57.849Z,42.4
2023-05-09T12:00:00.553Z,47.7
2023-05-09T12:05:00.444Z,47.3
2023-05-09T12:10:03.716Z,47.7
2023-05-09T12:15:04.011Z,48.5
2023-05-09T12:20:04.355Z,48.1
2023-05-09T12:25:12.743Z,49
2023-05-09T12:30:12.087Z,48.7
2023-05-09T12:35:12.404Z,48.8
2023-05-09T12:40:13.098Z,48.9
2023-05-09T12:45:13.961Z,49.3
2023-05-09T12:50:17.163Z,49.9
2023-05-09T12:55:17.224Z,49.5
2023-05-09T13:00:18.686Z,49.5
2023-05-09T13:05:18.970Z,50
2023-05-09T13:10:19.619Z,49.7
2023-05-09T13:15:19.930Z,50
2023-05-09T13:20:20.594Z,50.2
2023-05-09T13:25:21.457Z,49.1
2023-05-09T13:30:22.014Z,49.5
2023-05-09T13:35:22.373Z,49.2
2023-05-09T13:40:23.026Z,49.6
2023-05-09T13:45:23.654Z,49.3
2023-05-09T13:50:24.056Z,49.2
2023-05-09T13:55:24.706Z,49.2
2023-05-09T14:00:25.344Z,49.1
2023-05-09T14:05:26.431Z,49.1
2023-05-09T14:10:27.093Z,49.2
2023-05-09T14:15:27.499Z,48.7
2023-05-09T14:20:28.167Z,49.3
2023-05-09T14:25:31.379Z,49.1
2023-05-09T14:30:31.364Z,49.1
2023-05-09T14:35:34.809Z,49.2
2023-05-09T14:40:37.851Z,48.7
2023-05-09T14:45:40.457Z,49.2
2023-05-09T14:50:43.169Z,49.1
2023-05-09T14:55:43.310Z,49
2023-05-09T15:00:43.986Z,49
2023-05-09T15:05:44.620Z,48.6
2023-05-09T15:10:45.210Z,48.8
2023-05-09T15:15:45.630Z,48.4
2023-05-09T15:20:45.887Z,48.2
2023-05-09T15:25:46.513Z,48.4
2023-05-09T15:30:47.367Z,48.4
2023-05-09T15:35:47.760Z,48.7
2023-05-09T15:40:48.209Z,48.9
2023-05-09T15:45:48.557Z,48.8
2023-05-09T15:50:52.084Z,48.6
2023-05-09T15:55:52.043Z,48.9
2023-05-09T16:00:52.547Z,48.3
2023-05-09T16:05:52.992Z,48.3
2023-05-09T16:10:54.292Z,48.4
2023-05-09T16:15:53.755Z,48.6
2023-05-09T16:20:54.014Z,48.6
2023-05-09T16:25:54.522Z,48.2
2023-05-09T16:30:55.378Z,48.5
2023-05-09T16:35:55.567Z,48.4
2023-05-09T16:40:56.077Z,48.1
2023-05-09T16:45:56.380Z,47.8
2023-05-09T16:51:09.047Z,48
2023-05-09T16:56:07.606Z,48.3
2023-05-09T17:01:08.927Z,48.2
2023-05-09T17:06:09.046Z,48
2023-05-09T17:11:09.640Z,47.8
2023-05-09T17:16:12.770Z,48.2
2023-05-09T17:21:12.857Z,48.5
2023-05-09T17:26:15.891Z,48.4
2023-05-09T17:31:16.426Z,48.7
2023-05-09T17:36:18.757Z,48.4
2023-05-09T17:41:19.180Z,48.1
2023-05-09T17:46:31.551Z,48.7
2023-05-09T17:51:30.033Z,48.3
2023-05-09T17:56:30.585Z,48.5
2023-05-09T18:01:31.901Z,48.5
2023-05-09T18:06:32.197Z,48.3
2023-05-09T18:11:44.964Z,48.4
2023-05-09T18:16:46.106Z,49
2023-05-09T18:21:48.752Z,48.3
2023-05-09T18:26:48.965Z,48.9
2023-05-09T18:31:49.388Z,48.5
2023-05-09T18:36:50.471Z,48.4
2023-05-09T18:41:50.810Z,48.8
2023-05-09T18:46:51.324Z,48.8
2023-05-09T18:51:54.294Z,48.6
2023-05-09T18:56:54.222Z,48.4
2023-05-09T19:01:59.056Z,48.7
2023-05-09T19:06:58.598Z,48.5
2023-05-09T19:12:01.707Z,48.5
2023-05-09T19:17:02.149Z,48.8
2023-05-09T19:22:03.161Z,48.6
2023-05-09T19:27:03.600Z,48.8
2023-05-09T19:32:04.167Z,48.9
2023-05-09T19:37:04.928Z,48.9
2023-05-09T19:42:05.273Z,49.1
2023-05-09T19:47:05.959Z,48.7
2023-05-09T19:52:09.250Z,49.2
2023-05-09T19:57:09.111Z,48.9
2023-05-09T20:02:09.758Z,49.1
2023-05-09T20:07:10.260Z,49
2023-05-09T20:12:10.540Z,48.9
2023-05-09T20:17:11.188Z,49.1
2023-05-09T20:22:11.699Z,49
2023-05-09T20:27:12.097Z,49
2023-05-09T20:32:12.139Z,48.9
2023-05-09T20:37:12.896Z,49
2023-05-09T20:42:14.125Z,49.2
2023-05-09T20:47:14.462Z,49
2023-05-09T20:52:17.475Z,49
2023-05-09T20:57:17.272Z,49
2023-05-09T21:02:17.586Z,49.4
2023-05-09T21:07:20.997Z,49.3
2023-05-09T21:12:20.773Z,49
2023-05-09T21:17:24.091Z,49.2
2023-05-09T21:22:26.762Z,49.2
2023-05-09T21:27:26.922Z,49.5
2023-05-09T21:32:27.382Z,49.1
2023-05-09T21:37:27.656Z,49.1
2023-05-09T21:42:30.808Z,49.2
2023-05-09T21:47:31.109Z,48.9
2023-05-09T21:52:33.941Z,49.3
2023-05-09T21:57:34.111Z,49.3
2023-05-09T22:02:34.813Z,48.8
2023-05-09T22:07:37.976Z,49
2023-05-09T22:12:40.832Z,49.1
2023-05-09T22:17:41.616Z,49.2
2023-05-09T22:22:42.060Z,49.3
2023-05-09T22:27:42.475Z,49.2
2023-05-09T22:32:43.058Z,48.9
2023-05-09T22:37:43.607Z,49.2
2023-05-09T22:42:44.129Z,49.2
2023-05-09T22:47:44.717Z,49.3
2023-05-09T22:52:45.431Z,49.4
2023-05-09T22:57:45.896Z,49
2023-05-09T23:02:49.218Z,49.3
2023-05-09T23:07:49.217Z,49.5
2023-05-09T23:12:52.480Z,49.5
2023-05-09T23:17:56.621Z,49.4
2023-05-09T23:22:59.463Z,49.2
2023-05-09T23:28:02.107Z,49.5
2023-05-09T23:33:04.877Z,49.2
2023-05-09T23:38:07.710Z,49.4
2023-05-09T23:43:07.888Z,49.5
2023-05-09T23:48:11.302Z,49.2
2023-05-09T23:53:11.322Z,49.5
2023-05-09T23:58:11.851Z,49.5
